Time;durP1;ratioP1;P1;durP2;ratioP2;P2;SDS_P1;SDS_P2;PMS_P1;PMS_P2;Temp;Humidity;BMP_temperature;BMP_pressure;BME280_temperature;BME280_humidity;BME280_pressure;Samples;Min_cycle;Max_cycle;Signal;HPM_P1;HPM_P2
2021/09/17 00:01:20;;;;;;;0.68;0.35;;;17.80;99.90;;;;;;4954013;29;20024;-76
2021/09/17 00:03:46;;;;;;;0.50;0.50;;;17.80;99.90;;;;;;4953898;29;20035;-76
2021/09/17 00:06:12;;;;;;;0.70;0.45;;;17.80;99.90;;;;;;4955217;29;20023;-76
2021/09/17 00:08:38;;;;;;;0.13;0.10;;;17.80;99.90;;;;;;4955116;29;20027;-76
2021/09/17 00:11:06;;;;;;;1.60;0.85;;;17.80;99.90;;;;;;4955132;29;20027;-76
2021/09/17 00:13:33;;;;;;;0.20;0.20;;;17.80;99.90;;;;;;4953968;28;20027;-76
2021/09/17 00:15:58;;;;;;;0.32;0.32;;;17.80;99.90;;;;;;4968184;28;20015;-76
2021/09/17 00:18:24;;;;;;;0.35;0.35;;;17.80;99.90;;;;;;4973866;28;20029;-76
2021/09/17 00:20:50;;;;;;;0.20;0.20;;;17.80;99.90;;;;;;4974415;28;20058;-76
2021/09/17 00:23:16;;;;;;;0.25;0.25;;;17.80;99.90;;;;;;4973966;28;20097;-76
2021/09/17 00:25:41;;;;;;;1.13;0.82;;;17.80;99.90;;;;;;4974329;28;20035;-76
2021/09/17 00:28:07;;;;;;;0.20;0.20;;;17.90;99.90;;;;;;4973996;28;20473;-76
2021/09/17 00:30:33;;;;;;;0.30;0.30;;;17.90;99.90;;;;;;4973977;28;20035;-76
2021/09/17 00:32:59;;;;;;;0.10;0.10;;;17.90;99.90;;;;;;4971183;28;20023;-76
2021/09/17 00:35:25;;;;;;;0.20;0.20;;;17.90;99.90;;;;;;4973979;28;20042;-76
2021/09/17 00:37:51;;;;;;;0.15;0.15;;;17.90;99.90;;;;;;4974493;28;20026;-76
2021/09/17 00:40:18;;;;;;;0.10;0.10;;;17.90;99.90;;;;;;4974259;28;20089;-76
2021/09/17 00:42:44;;;;;;;1.02;0.93;;;17.90;99.90;;;;;;4974600;28;20421;-76
2021/09/17 00:45:11;;;;;;;0.10;0.10;;;17.90;99.90;;;;;;4973800;28;20050;-76
2021/09/17 00:47:38;;;;;;;0.80;0.80;;;17.80;99.90;;;;;;4974132;28;20490;-76
2021/09/17 00:50:06;;;;;;;0.13;0.13;;;17.90;99.90;;;;;;4974195;28;20058;-76
2021/09/17 00:52:32;;;;;;;0.50;0.50;;;17.80;99.90;;;;;;4972615;28;20053;-76
2021/09/17 00:54:58;;;;;;;0.35;0.30;;;17.70;99.90;;;;;;4972717;28;20561;-76
2021/09/17 00:57:24;;;;;;;0.55;0.55;;;17.70;99.90;;;;;;4974140;28;20031;-76
2021/09/17 00:59:50;;;;;;;0.63;0.63;;;17.70;99.90;;;;;;4974016;28;20019;-76
2021/09/17 01:02:16;;;;;;;0.25;0.25;;;17.70;99.90;;;;;;4973854;28;20034;-76
2021/09/17 01:04:42;;;;;;;0.10;0.10;;;17.60;99.90;;;;;;4973917;28;20034;-76
2021/09/17 01:07:08;;;;;;;0.35;0.35;;;17.50;99.90;;;;;;4972857;28;20106;-76
2021/09/17 01:09:34;;;;;;;0.52;0.52;;;17.60;99.90;;;;;;4970999;28;20039;-77
2021/09/17 01:12:03;;;;;;;0.55;0.43;;;17.60;99.90;;;;;;4973876;28;20031;-76
2021/09/17 01:14:33;;;;;;;0.15;0.15;;;17.50;99.90;;;;;;4973758;28;20044;-75
2021/09/17 01:16:59;;;;;;;0.17;0.17;;;17.50;99.90;;;;;;4973988;28;20023;-76
2021/09/17 01:19:25;;;;;;;0.13;0.13;;;17.50;99.90;;;;;;4973753;28;20478;-77
2021/09/17 01:22:04;;;;;;;0.25;0.20;;;17.50;99.90;;;;;;4973196;28;20090;-76
2021/09/17 01:24:29;;;;;;;0.25;0.25;;;17.50;99.90;;;;;;4972243;28;20027;-76
2021/09/17 01:26:56;;;;;;;0.63;0.63;;;17.50;99.90;;;;;;4973674;28;20078;-76
2021/09/17 01:29:23;;;;;;;0.08;0.08;;;17.50;99.90;;;;;;4973640;28;20039;-76
2021/09/17 01:31:50;;;;;;;1.88;1.25;;;17.50;99.90;;;;;;4973420;28;20389;-76
2021/09/17 01:34:19;;;;;;;0.35;0.20;;;17.50;99.90;;;;;;4973153;28;20043;-76
2021/09/17 01:36:45;;;;;;;0.57;0.22;;;17.50;99.90;;;;;;4973637;28;20022;-76
2021/09/17 01:39:12;;;;;;;0.03;0.03;;;17.50;99.90;;;;;;4973191;28;20545;-76
2021/09/17 01:41:38;;;;;;;6.90;0.65;;;17.50;99.90;;;;;;4973599;28;20485;-76
2021/09/17 01:44:04;;;;;;;8.40;0.70;;;17.50;99.90;;;;;;4973466;28;20031;-76
2021/09/17 01:46:30;;;;;;;0.30;0.30;;;17.50;99.90;;;;;;4973585;28;20511;-76
2021/09/17 01:48:55;;;;;;;0.30;0.30;;;17.50;99.90;;;;;;4973486;28;20030;-76
2021/09/17 01:51:21;;;;;;;0.15;0.15;;;17.60;99.90;;;;;;4973317;28;20031;-76
2021/09/17 01:53:48;;;;;;;0.90;0.63;;;17.60;99.90;;;;;;4973735;28;20051;-76
2021/09/17 01:56:14;;;;;;;2.13;0.95;;;17.50;99.90;;;;;;4973562;28;20502;-76
2021/09/17 01:58:41;;;;;;;0.10;0.10;;;17.60;99.90;;;;;;4973640;28;20027;-76
2021/09/17 02:01:07;;;;;;;0.30;0.30;;;17.60;99.90;;;;;;4973606;28;20033;-76
2021/09/17 02:03:32;;;;;;;0.17;0.17;;;17.50;99.90;;;;;;4973175;28;20452;-76
2021/09/17 02:05:58;;;;;;;0.10;0.10;;;17.50;99.90;;;;;;4972221;28;20406;-76
2021/09/17 02:08:24;;;;;;;0.00;0.00;;;17.60;99.90;;;;;;4973367;28;20038;-76
2021/09/17 02:10:49;;;;;;;0.20;0.20;;;17.60;99.90;;;;;;4974338;28;20479;-76
2021/09/17 02:13:19;;;;;;;0.22;0.10;;;17.60;99.90;;;;;;4976880;28;20042;-76
2021/09/17 02:15:47;;;;;;;0.20;0.20;;;17.60;99.90;;;;;;4994116;28;20018;-76
2021/09/17 02:18:13;;;;;;;1.05;0.30;;;17.60;99.90;;;;;;4990811;28;20023;-76
2021/09/17 02:20:39;;;;;;;0.47;0.15;;;17.60;99.90;;;;;;4976945;28;20035;-76
2021/09/17 02:23:04;;;;;;;0.00;0.00;;;17.60;99.90;;;;;;4976665;28;20030;-76
2021/09/17 02:25:30;;;;;;;0.30;0.30;;;17.60;99.90;;;;;;4976727;28;20053;-76
2021/09/17 02:27:56;;;;;;;0.65;0.43;;;17.60;99.90;;;;;;4976714;28;20034;-76
2021/09/17 02:30:22;;;;;;;0.47;0.25;;;17.50;99.90;;;;;;4976569;28;20048;-76
2021/09/17 02:32:47;;;;;;;0.15;0.15;;;17.50;99.90;;;;;;4976284;28;20033;-76
2021/09/17 02:35:13;;;;;;;0.38;0.38;;;17.50;99.90;;;;;;4976321;28;20043;-76
2021/09/17 02:37:40;;;;;;;0.15;0.13;;;17.50;99.90;;;;;;4976744;28;20019;-76
2021/09/17 02:40:09;;;;;;;0.00;0.00;;;17.50;99.90;;;;;;4973204;28;20549;-76
2021/09/17 02:42:34;;;;;;;0.82;0.82;;;17.50;99.90;;;;;;4976514;28;20030;-76
2021/09/17 02:45:00;;;;;;;0.40;0.40;;;17.50;99.90;;;;;;4976181;28;20047;-76
2021/09/17 02:47:26;;;;;;;0.17;0.17;;;17.50;99.90;;;;;;4976943;28;20042;-76
2021/09/17 02:49:52;;;;;;;5.38;0.63;;;17.50;99.90;;;;;;4976546;28;20553;-76
2021/09/17 02:52:18;;;;;;;0.98;0.35;;;17.40;99.90;;;;;;4974956;28;20038;-76
2021/09/17 02:54:44;;;;;;;0.60;0.60;;;17.40;99.90;;;;;;4976075;28;20045;-76
2021/09/17 02:57:09;;;;;;;0.45;0.38;;;17.40;99.90;;;;;;4975819;28;20398;-76
2021/09/17 02:59:35;;;;;;;0.15;0.15;;;17.40;99.90;;;;;;4976056;28;20030;-76
2021/09/17 03:02:01;;;;;;;0.20;0.20;;;17.40;99.90;;;;;;4976016;28;20036;-76
2021/09/17 03:04:27;;;;;;;0.10;0.10;;;17.40;99.90;;;;;;4976077;28;20022;-76
2021/09/17 03:06:53;;;;;;;0.43;0.43;;;17.30;99.90;;;;;;4974715;28;20405;-76
2021/09/17 03:09:19;;;;;;;0.08;0.08;;;17.30;99.90;;;;;;4975610;28;20393;-76
2021/09/17 03:11:44;;;;;;;0.00;0.00;;;17.30;99.90;;;;;;4974476;28;20034;-76
2021/09/17 03:14:10;;;;;;;0.80;0.25;;;17.30;99.90;;;;;;4975610;28;20026;-76
2021/09/17 03:16:36;;;;;;;9.73;0.30;;;17.20;99.90;;;;;;4975590;28;20458;-76
2021/09/17 03:19:02;;;;;;;0.60;0.60;;;17.20;99.90;;;;;;4975796;28;20050;-76
2021/09/17 03:21:30;;;;;;;0.00;0.00;;;17.10;99.90;;;;;;4974717;28;20110;-76
2021/09/17 03:23:56;;;;;;;0.10;0.10;;;17.10;99.90;;;;;;4975524;28;20027;-76
2021/09/17 03:26:22;;;;;;;0.50;0.40;;;17.00;99.90;;;;;;4975361;28;20045;-76
2021/09/17 03:28:47;;;;;;;5.38;0.57;;;17.10;99.90;;;;;;4975815;28;20031;-76
2021/09/17 03:31:13;;;;;;;0.25;0.25;;;17.00;99.90;;;;;;4975575;28;20105;-76
2021/09/17 03:33:39;;;;;;;6.35;0.68;;;17.00;99.90;;;;;;4973767;28;20023;-76
2021/09/17 03:36:05;;;;;;;0.28;0.28;;;17.00;99.90;;;;;;4975246;28;20031;-76
2021/09/17 03:38:31;;;;;;;0.40;0.22;;;17.00;99.90;;;;;;4975512;28;20027;-76
2021/09/17 03:40:56;;;;;;;0.03;0.03;;;17.00;99.90;;;;;;4974465;28;20037;-76
2021/09/17 03:43:22;;;;;;;0.00;0.00;;;16.90;99.90;;;;;;4974504;28;20023;-76
2021/09/17 03:45:48;;;;;;;0.13;0.13;;;16.90;99.90;;;;;;4975225;28;20514;-76
2021/09/17 03:48:14;;;;;;;0.32;0.28;;;16.90;99.90;;;;;;4974998;28;20027;-76
2021/09/17 03:50:41;;;;;;;4.70;0.32;;;16.90;99.90;;;;;;4975157;28;20031;-76
2021/09/17 03:53:07;;;;;;;0.00;0.00;;;16.80;99.90;;;;;;4973642;28;20034;-77
2021/09/17 03:55:34;;;;;;;0.20;0.20;;;16.80;99.90;;;;;;4974982;28;20042;-76
2021/09/17 03:58:03;;;;;;;0.35;0.28;;;16.80;99.90;;;;;;4974937;28;20486;-76
2021/09/17 04:00:29;;;;;;;0.10;0.10;;;16.80;99.90;;;;;;4975102;28;20029;-76
2021/09/17 04:02:55;;;;;;;0.30;0.30;;;16.80;99.90;;;;;;4973377;28;20113;-76
2021/09/17 04:05:21;;;;;;;1.10;0.73;;;16.80;99.90;;;;;;4973555;28;20033;-76
2021/09/17 04:07:46;;;;;;;0.38;0.20;;;16.70;99.90;;;;;;4975142;28;20052;-76
2021/09/17 04:10:14;;;;;;;1.45;0.03;;;16.70;99.90;;;;;;4971974;28;20030;-75
2021/09/17 04:12:40;;;;;;;0.30;0.05;;;16.70;99.90;;;;;;4974741;28;20023;-76
2021/09/17 04:15:07;;;;;;;0.00;0.00;;;16.70;99.90;;;;;;4986784;28;20493;-76
2021/09/17 04:17:32;;;;;;;0.55;0.55;;;16.70;99.90;;;;;;4993965;28;20459;-76
2021/09/17 04:19:58;;;;;;;0.30;0.30;;;16.70;99.90;;;;;;4977950;28;20034;-76
2021/09/17 04:22:24;;;;;;;11.57;0.55;;;16.70;99.90;;;;;;4974534;28;20030;-76
2021/09/17 04:24:52;;;;;;;0.90;0.47;;;16.60;99.90;;;;;;4974548;28;20030;-76
2021/09/17 04:27:20;;;;;;;15.60;0.25;;;16.60;99.90;;;;;;4974375;28;20041;-76
2021/09/17 04:29:46;;;;;;;0.00;0.00;;;16.60;99.90;;;;;;4973738;28;20058;-76
2021/09/17 04:32:11;;;;;;;0.00;0.00;;;16.60;99.90;;;;;;4974296;28;20023;-76
2021/09/17 04:34:37;;;;;;;0.25;0.25;;;16.60;99.90;;;;;;4974143;28;20505;-76
2021/09/17 04:37:03;;;;;;;0.00;0.00;;;16.60;99.90;;;;;;4973012;28;20030;-77
2021/09/17 04:39:29;;;;;;;0.15;0.15;;;16.60;99.90;;;;;;4974158;28;20063;-76
2021/09/17 04:41:55;;;;;;;0.00;0.00;;;16.50;99.90;;;;;;4973006;28;20027;-77
2021/09/17 04:44:21;;;;;;;1.30;0.20;;;16.50;99.90;;;;;;4974195;28;20061;-76
2021/09/17 04:46:46;;;;;;;0.05;0.05;;;16.50;99.90;;;;;;4974309;28;20027;-75
2021/09/17 04:49:12;;;;;;;0.13;0.13;;;16.40;99.90;;;;;;4974158;28;20419;-77
2021/09/17 04:51:38;;;;;;;0.10;0.10;;;16.40;99.90;;;;;;4974249;28;20031;-76
2021/09/17 04:54:04;;;;;;;0.75;0.30;;;16.30;99.90;;;;;;4973749;28;20475;-76
2021/09/17 04:56:29;;;;;;;0.20;0.20;;;16.30;99.90;;;;;;4974208;28;20046;-76
2021/09/17 04:58:55;;;;;;;0.00;0.00;;;16.30;99.90;;;;;;4974363;28;20023;-76
2021/09/17 05:01:21;;;;;;;0.90;0.20;;;16.30;99.90;;;;;;4969792;28;20018;-77
2021/09/17 05:03:47;;;;;;;0.20;0.20;;;16.30;99.90;;;;;;4973260;28;20545;-76
2021/09/17 05:06:13;;;;;;;0.10;0.10;;;16.30;99.90;;;;;;4972597;28;20031;-76
2021/09/17 05:08:39;;;;;;;0.80;0.80;;;16.30;99.90;;;;;;4974007;28;20039;-76
2021/09/17 05:11:04;;;;;;;0.28;0.28;;;16.40;99.90;;;;;;4973935;28;20446;-76
2021/09/17 05:13:30;;;;;;;0.52;0.47;;;16.40;99.90;;;;;;4974110;28;20029;-76
2021/09/17 05:15:56;;;;;;;0.65;0.40;;;16.50;99.90;;;;;;4973529;28;20434;-76
2021/09/17 05:18:23;;;;;;;0.00;0.00;;;16.50;99.90;;;;;;4973596;28;20593;-76
2021/09/17 05:20:48;;;;;;;0.20;0.20;;;16.60;99.90;;;;;;4973932;28;20065;-76
2021/09/17 05:23:14;;;;;;;0.10;0.10;;;16.60;99.90;;;;;;4973910;28;20102;-75
2021/09/17 05:25:40;;;;;;;0.65;0.65;;;16.60;99.90;;;;;;4973997;28;20023;-76
2021/09/17 05:28:05;;;;;;;0.65;0.55;;;16.60;99.90;;;;;;4973944;28;20105;-76
2021/09/17 05:30:31;;;;;;;0.10;0.10;;;16.60;99.90;;;;;;4974305;28;20565;-76
2021/09/17 05:32:57;;;;;;;3.10;0.30;;;16.60;99.90;;;;;;4977903;28;20059;-77
2021/09/17 05:35:22;;;;;;;0.55;0.25;;;16.60;99.90;;;;;;4975273;28;20453;-77
2021/09/17 05:37:48;;;;;;;0.10;0.10;;;16.60;99.90;;;;;;4975585;28;20031;-75
2021/09/17 05:40:14;;;;;;;1.75;0.75;;;16.60;99.90;;;;;;4977174;28;20027;-76
2021/09/17 05:45:26;;;;;;;0.00;0.00;;;16.70;99.90;;;;;;4980645;28;20051;-76
2021/09/17 05:47:51;;;;;;;0.43;0.43;;;16.70;99.90;;;;;;4985750;28;20465;-76
2021/09/17 05:50:17;;;;;;;0.38;0.38;;;16.70;99.90;;;;;;4983747;28;20023;-76
2021/09/17 05:52:43;;;;;;;0.08;0.08;;;16.70;99.90;;;;;;4981090;28;20117;-75
2021/09/17 05:55:09;;;;;;;0.13;0.13;;;16.70;99.90;;;;;;4977759;28;20023;-77
2021/09/17 05:57:35;;;;;;;0.35;0.10;;;16.70;99.90;;;;;;4976757;28;20052;-77
2021/09/17 06:00:01;;;;;;;0.00;0.00;;;16.80;99.90;;;;;;4976892;28;20015;-76
2021/09/17 06:02:26;;;;;;;0.00;0.00;;;16.80;99.90;;;;;;4975701;28;20085;-77
2021/09/17 06:04:52;;;;;;;0.03;0.03;;;16.90;99.90;;;;;;4976808;28;20015;-77
2021/09/17 06:07:18;;;;;;;1.35;0.15;;;16.90;99.90;;;;;;4976837;28;20045;-77
2021/09/17 06:09:43;;;;;;;0.15;0.15;;;17.00;99.90;;;;;;4974357;28;20508;-76
2021/09/17 06:12:09;;;;;;;0.10;0.10;;;17.00;99.90;;;;;;4975691;28;20025;-76
2021/09/17 06:14:35;;;;;;;0.28;0.28;;;17.10;99.90;;;;;;4974614;28;20031;-76
2021/09/17 06:17:01;;;;;;;0.10;0.10;;;17.20;99.90;;;;;;4962723;28;20410;-76
2021/09/17 06:19:27;;;;;;;0.00;0.00;;;17.20;99.90;;;;;;4974200;28;20055;-76
2021/09/17 06:21:52;;;;;;;0.22;0.22;;;17.20;99.90;;;;;;4975004;28;20073;-76
2021/09/17 06:24:18;;;;;;;0.00;0.00;;;17.30;99.90;;;;;;4976333;28;20023;-76
2021/09/17 06:26:44;;;;;;;0.10;0.10;;;17.30;99.90;;;;;;4975355;28;20376;-76
2021/09/17 06:29:10;;;;;;;0.30;0.30;;;17.30;99.90;;;;;;4973080;28;20038;-76
2021/09/17 06:31:36;;;;;;;0.73;0.17;;;17.40;99.90;;;;;;4976287;28;20027;-76
2021/09/17 06:34:05;;;;;;;0.45;0.45;;;17.40;99.90;;;;;;4975094;28;20380;-76
2021/09/17 06:36:31;;;;;;;5.38;0.40;;;17.50;99.90;;;;;;4974526;28;20058;-76
2021/09/17 06:39:00;;;;;;;0.10;0.10;;;17.50;99.90;;;;;;4974923;28;20395;-76
2021/09/17 06:41:26;;;;;;;0.45;0.45;;;17.60;99.90;;;;;;4975947;28;20023;-76
2021/09/17 06:43:52;;;;;;;0.00;0.00;;;17.50;99.90;;;;;;4975273;28;20087;-75
2021/09/17 06:46:18;;;;;;;0.22;0.05;;;17.60;99.90;;;;;;4975376;28;20090;-76
2021/09/17 06:48:44;;;;;;;0.22;0.10;;;17.70;99.90;;;;;;4975606;28;20582;-76
2021/09/17 06:51:09;;;;;;;2.75;0.47;;;17.70;99.90;;;;;;4973597;28;20031;-76
2021/09/17 06:53:36;;;;;;;0.00;0.00;;;17.80;99.90;;;;;;4975330;28;20034;-76
2021/09/17 06:56:02;;;;;;;0.20;0.10;;;17.90;99.90;;;;;;4973941;28;20034;-77
2021/09/17 06:58:31;;;;;;;0.00;0.00;;;17.90;99.90;;;;;;4973503;28;20077;-77
2021/09/17 07:01:00;;;;;;;0.00;0.00;;;18.00;99.90;;;;;;4974607;28;20082;-76
2021/09/17 07:03:27;;;;;;;0.00;0.00;;;18.10;99.90;;;;;;4973727;28;20385;-77
2021/09/17 07:05:53;;;;;;;0.00;0.00;;;18.30;99.90;;;;;;4974370;28;20031;-77
2021/09/17 07:08:19;;;;;;;0.00;0.00;;;18.40;99.90;;;;;;4986187;28;20535;-77
2021/09/17 07:10:46;;;;;;;0.05;0.05;;;18.60;99.90;;;;;;4986678;28;20026;-76
2021/09/17 07:13:12;;;;;;;0.25;0.10;;;18.80;99.90;;;;;;4974457;28;20031;-76
2021/09/17 07:15:38;;;;;;;0.25;0.13;;;19.10;99.90;;;;;;4974325;28;20066;-77
2021/09/17 07:18:05;;;;;;;0.10;0.10;;;19.20;99.90;;;;;;4974506;28;20030;-77
2021/09/17 07:20:32;;;;;;;2.95;0.38;;;19.40;99.90;;;;;;4975087;28;20126;-76
2021/09/17 07:22:58;;;;;;;0.43;0.32;;;19.50;99.90;;;;;;4972802;28;20450;-75
2021/09/17 07:25:23;;;;;;;0.00;0.00;;;19.50;99.90;;;;;;4974647;28;20023;-76
2021/09/17 07:27:49;;;;;;;0.10;0.10;;;19.50;99.90;;;;;;4975077;28;20102;-77
2021/09/17 07:30:16;;;;;;;0.10;0.10;;;19.40;99.90;;;;;;4979641;28;20115;-78
2021/09/17 07:32:42;;;;;;;0.00;0.00;;;19.30;99.90;;;;;;4975180;28;20054;-77
2021/09/17 07:35:09;;;;;;;1.25;0.85;;;19.10;99.90;;;;;;4973695;28;20438;-76
2021/09/17 07:37:35;;;;;;;0.00;0.00;;;19.20;99.90;;;;;;4978202;28;20045;-77
2021/09/17 07:40:02;;;;;;;0.98;0.40;;;19.30;99.90;;;;;;4975298;28;20030;-77
2021/09/17 07:42:28;;;;;;;0.10;0.10;;;19.50;99.90;;;;;;4980681;28;20031;-79
2021/09/17 07:44:54;;;;;;;0.40;0.40;;;19.70;99.90;;;;;;4974113;28;20461;-79
2021/09/17 07:47:20;;;;;;;0.20;0.20;;;19.90;99.90;;;;;;4974489;28;20405;-79
2021/09/17 07:49:45;;;;;;;0.00;0.00;;;20.20;99.90;;;;;;4975070;28;20023;-79
2021/09/17 07:52:11;;;;;;;0.03;0.03;;;21.10;99.90;;;;;;4973109;28;20034;-79
2021/09/17 07:54:37;;;;;;;0.45;0.10;;;23.50;99.90;;;;;;4974187;28;20094;-78
2021/09/17 07:57:03;;;;;;;0.03;0.03;;;25.30;99.90;;;;;;4973889;28;20038;-76
2021/09/17 07:59:29;;;;;;;0.10;0.10;;;26.30;97.90;;;;;;4972580;28;20019;-76
2021/09/17 08:01:55;;;;;;;0.88;0.63;;;27.10;96.40;;;;;;4972572;28;20077;-76
2021/09/17 08:04:20;;;;;;;0.15;0.15;;;27.40;95.20;;;;;;4971230;28;20027;-76
2021/09/17 08:06:46;;;;;;;0.10;0.10;;;25.90;96.00;;;;;;4973406;28;20031;-75
2021/09/17 08:09:12;;;;;;;0.75;0.38;;;25.50;97.40;;;;;;4971515;28;20118;-77
2021/09/17 08:11:39;;;;;;;0.17;0.17;;;26.30;95.50;;;;;;4974150;28;20027;-77
2021/09/17 08:14:05;;;;;;;5.38;0.40;;;27.60;94.20;;;;;;4972939;28;20094;-77
2021/09/17 08:16:31;;;;;;;0.85;0.60;;;28.50;93.20;;;;;;4972616;28;20089;-76
2021/09/17 08:18:57;;;;;;;0.80;0.65;;;27.80;93.20;;;;;;4974157;28;20037;-76
2021/09/17 08:21:23;;;;;;;0.10;0.10;;;28.20;92.50;;;;;;4973036;28;20023;-77
2021/09/17 08:23:49;;;;;;;0.43;0.20;;;26.70;93.50;;;;;;4973879;28;20503;-76
2021/09/17 08:26:15;;;;;;;1.48;0.10;;;25.10;95.00;;;;;;4976599;28;20027;-76
2021/09/17 08:28:43;;;;;;;0.20;0.20;;;23.90;96.70;;;;;;4990342;28;20027;-76
2021/09/17 08:31:08;;;;;;;0.10;0.10;;;23.00;98.30;;;;;;4972985;28;20114;-76
2021/09/17 08:33:34;;;;;;;0.00;0.00;;;22.60;99.70;;;;;;4973745;28;20117;-76
2021/09/17 08:36:00;;;;;;;0.00;0.00;;;22.30;99.80;;;;;;4972065;28;20490;-75
2021/09/17 08:38:26;;;;;;;0.10;0.10;;;22.30;99.90;;;;;;4972492;28;20026;-76
2021/09/17 08:40:56;;;;;;;0.15;0.15;;;22.20;99.90;;;;;;4972101;28;20019;-76
2021/09/17 08:43:23;;;;;;;0.00;0.00;;;22.10;99.90;;;;;;4977979;28;20035;-75
2021/09/17 08:45:49;;;;;;;0.13;0.13;;;22.10;99.90;;;;;;4970497;28;20050;-77
2021/09/17 08:48:16;;;;;;;0.52;0.40;;;22.60;99.50;;;;;;4969985;28;20053;-76
2021/09/17 08:50:45;;;;;;;0.68;0.30;;;22.60;99.90;;;;;;4977470;28;20026;-76
2021/09/17 08:53:14;;;;;;;0.00;0.00;;;23.30;99.10;;;;;;4975133;28;20479;-75
2021/09/17 08:55:40;;;;;;;0.20;0.20;;;23.00;99.40;;;;;;4973219;28;20034;-76
2021/09/17 08:58:06;;;;;;;0.05;0.05;;;22.90;99.90;;;;;;4980848;28;20034;-76
2021/09/17 09:00:31;;;;;;;0.20;0.20;;;23.20;99.30;;;;;;4979571;28;20007;-76
2021/09/17 09:02:58;;;;;;;0.00;0.00;;;23.50;98.50;;;;;;4975608;28;20437;-76
2021/09/17 09:05:29;;;;;;;1.38;0.88;;;24.20;98.70;;;;;;4978535;28;20369;-76
2021/09/17 09:07:56;;;;;;;0.10;0.10;;;26.40;96.10;;;;;;4953640;28;20027;-77
2021/09/17 09:10:22;;;;;;;0.30;0.30;;;28.60;92.70;;;;;;4970884;28;20520;-77
2021/09/17 09:12:51;;;;;;;0.60;0.25;;;28.40;91.30;;;;;;4973650;28;20034;-77
2021/09/17 09:15:19;;;;;;;0.30;0.30;;;30.30;90.00;;;;;;4972156;28;20039;-76
2021/09/17 09:17:46;;;;;;;2.47;0.60;;;31.10;87.10;;;;;;4973169;28;20026;-77
2021/09/17 09:20:32;;;;;;;0.20;0.20;;;31.50;85.50;;;;;;4974166;28;20386;-77
2021/09/17 09:23:24;;;;;;;0.47;0.47;;;30.60;85.40;;;;;;4981746;28;20031;-75
2021/09/17 09:26:05;;;;;;;0.30;0.30;;;29.60;86.80;;;;;;4977242;28;20031;-77
2021/09/17 09:28:40;;;;;;;3.60;0.50;;;28.60;86.90;;;;;;4972256;28;20281;-76
2021/09/17 09:31:08;;;;;;;0.20;0.20;;;26.90;88.40;;;;;;4974828;28;20034;-76
2021/09/17 09:33:36;;;;;;;0.08;0.08;;;25.70;91.10;;;;;;4981258;28;20030;-76
2021/09/17 09:36:06;;;;;;;0.10;0.10;;;24.40;92.60;;;;;;4983974;28;20494;-76
2021/09/17 09:38:40;;;;;;;0.55;0.30;;;24.40;93.10;;;;;;4991101;28;20395;-76
2021/09/17 09:41:12;;;;;;;2.05;0.85;;;25.60;90.70;;;;;;4980864;28;20054;-76
2021/09/17 09:43:50;;;;;;;0.30;0.30;;;26.50;90.30;;;;;;4976049;28;20030;-77
2021/09/17 09:46:31;;;;;;;0.20;0.20;;;27.20;89.10;;;;;;4992726;28;20053;-76
2021/09/17 09:49:02;;;;;;;0.22;0.22;;;26.00;90.60;;;;;;4979378;28;20099;-76
2021/09/17 09:51:34;;;;;;;10.20;0.45;;;25.20;91.70;;;;;;4976325;28;20114;-75
2021/09/17 09:54:02;;;;;;;0.08;0.08;;;24.00;93.40;;;;;;4974608;28;20576;-76
2021/09/17 09:56:28;;;;;;;0.05;0.05;;;23.70;94.30;;;;;;4981491;28;20019;-77
2021/09/17 09:58:54;;;;;;;0.20;0.20;;;24.00;94.30;;;;;;4986376;28;20379;-77
2021/09/17 10:01:22;;;;;;;0.20;0.20;;;24.20;94.30;;;;;;4984571;28;20026;-78
2021/09/17 10:03:53;;;;;;;0.10;0.10;;;24.40;93.50;;;;;;4981881;28;20034;-76
2021/09/17 10:06:20;;;;;;;0.00;0.00;;;25.00;93.50;;;;;;4985290;28;20056;-76
2021/09/17 10:08:46;;;;;;;0.45;0.45;;;25.70;92.50;;;;;;4972424;28;20027;-76
2021/09/17 10:11:12;;;;;;;1.42;0.35;;;24.90;92.00;;;;;;4978350;28;20121;-75
2021/09/17 10:13:38;;;;;;;0.50;0.30;;;24.40;92.80;;;;;;4975987;28;20035;-75
2021/09/17 10:16:05;;;;;;;0.38;0.32;;;24.10;93.70;;;;;;4982273;28;20054;-75
2021/09/17 10:18:31;;;;;;;0.30;0.30;;;24.40;92.80;;;;;;4975556;28;20517;-75
2021/09/17 10:20:57;;;;;;;0.00;0.00;;;25.00;92.10;;;;;;4974594;28;20046;-76
2021/09/17 10:23:25;;;;;;;0.10;0.10;;;24.80;92.30;;;;;;4975005;28;20046;-75
2021/09/17 10:26:01;;;;;;;0.13;0.10;;;24.40;93.60;;;;;;4976047;28;20034;-76
2021/09/17 10:28:28;;;;;;;0.15;0.15;;;24.30;93.40;;;;;;4977093;28;20029;-75
2021/09/17 10:31:12;;;;;;;0.43;0.17;;;24.80;93.60;;;;;;4981391;28;20022;-76
2021/09/17 10:33:38;;;;;;;0.63;0.47;;;24.70;92.70;;;;;;4982616;28;20037;-76
2021/09/17 10:36:04;;;;;;;0.13;0.13;;;24.30;93.10;;;;;;4976055;28;20031;-75
2021/09/17 10:38:32;;;;;;;0.47;0.25;;;23.90;94.30;;;;;;4983116;28;20461;-76
2021/09/17 10:41:02;;;;;;;0.85;0.30;;;23.80;94.80;;;;;;4983431;28;20513;-75
2021/09/17 10:43:38;;;;;;;0.20;0.20;;;24.00;94.10;;;;;;4978947;28;20026;-75
2021/09/17 10:46:03;;;;;;;2.97;0.85;;;23.90;94.90;;;;;;4973725;28;20055;-75
2021/09/17 10:48:51;;;;;;;0.52;0.52;;;24.30;94.20;;;;;;4985320;28;20037;-75
2021/09/17 10:51:31;;;;;;;0.65;0.45;;;24.00;94.50;;;;;;4972373;28;20117;-75
2021/09/17 10:53:59;;;;;;;0.15;0.13;;;23.40;95.90;;;;;;4971502;28;20037;-75
2021/09/17 10:56:26;;;;;;;0.20;0.20;;;23.50;96.10;;;;;;4979202;28;20509;-74
2021/09/17 10:59:11;;;;;;;4.95;0.55;;;23.60;96.60;;;;;;4973825;28;20085;-75
2021/09/17 11:02:08;;;;;;;0.32;0.32;;;23.60;95.50;;;;;;4977734;28;20438;-75
2021/09/17 11:04:36;;;;;;;1.10;0.57;;;23.20;95.80;;;;;;4979159;28;20485;-75
2021/09/17 11:07:19;;;;;;;0.65;0.32;;;23.20;96.20;;;;;;4983993;28;20026;-75
2021/09/17 11:09:49;;;;;;;0.05;0.05;;;23.10;96.20;;;;;;4974228;28;20038;-77
2021/09/17 11:12:20;;;;;;;0.43;0.10;;;22.90;97.30;;;;;;4968840;28;20089;-75
2021/09/17 11:15:12;;;;;;;0.00;0.00;;;22.80;97.60;;;;;;4981731;28;20034;-75
2021/09/17 11:17:38;;;;;;;0.57;0.38;;;22.70;96.70;;;;;;4976655;28;20386;-76
2021/09/17 11:20:06;;;;;;;1.83;0.17;;;22.90;96.30;;;;;;4982344;28;20042;-74
2021/09/17 11:22:50;;;;;;;0.10;0.10;;;22.70;96.00;;;;;;4979144;28;20022;-74
2021/09/17 11:25:20;;;;;;;0.00;0.00;;;23.10;97.00;;;;;;4980487;28;20121;-75
2021/09/17 11:27:46;;;;;;;0.22;0.22;;;23.00;96.90;;;;;;4977233;28;20409;-74
2021/09/17 11:30:12;;;;;;;0.10;0.03;;;23.20;96.20;;;;;;4975848;28;20035;-75
2021/09/17 11:32:39;;;;;;;0.20;0.15;;;23.20;96.20;;;;;;4975562;28;20168;-75
2021/09/17 11:35:08;;;;;;;0.00;0.00;;;23.20;96.10;;;;;;4980238;28;20405;-74
2021/09/17 11:37:34;;;;;;;0.10;0.10;;;23.20;96.40;;;;;;4982460;28;20037;-74
2021/09/17 11:40:05;;;;;;;0.00;0.00;;;23.20;93.50;;;;;;4978345;28;20037;-75
2021/09/17 11:42:31;;;;;;;0.00;0.00;;;23.40;95.20;;;;;;4981349;28;20481;-75
2021/09/17 11:44:57;;;;;;;0.08;0.05;;;23.20;95.20;;;;;;4974503;28;20073;-75
2021/09/17 11:47:29;;;;;;;6.93;0.52;;;23.10;96.00;;;;;;4974983;28;20027;-75
2021/09/17 11:49:59;;;;;;;0.00;0.00;;;23.10;95.60;;;;;;4977596;28;20026;-75
2021/09/17 11:52:25;;;;;;;0.43;0.10;;;23.00;94.00;;;;;;4974213;28;20034;-75
2021/09/17 11:54:58;;;;;;;1.58;0.10;;;23.10;94.60;;;;;;4979415;28;20041;-75
2021/09/17 11:57:34;;;;;;;0.08;0.08;;;23.20;94.60;;;;;;4973681;28;20026;-75
2021/09/17 12:00:04;;;;;;;0.00;0.00;;;23.00;94.20;;;;;;4973510;28;20038;-75
2021/09/17 12:02:30;;;;;;;0.00;0.00;;;22.90;94.70;;;;;;4982888;28;20025;-75
2021/09/17 12:05:00;;;;;;;0.10;0.10;;;22.90;94.20;;;;;;4976794;28;20469;-75
2021/09/17 12:07:30;;;;;;;0.45;0.32;;;22.90;94.90;;;;;;4984875;28;20500;-75
2021/09/17 12:09:56;;;;;;;0.00;0.00;;;23.10;95.00;;;;;;4976453;28;20118;-74
2021/09/17 12:12:37;;;;;;;0.08;0.00;;;22.80;94.70;;;;;;4979233;28;20105;-74
2021/09/17 12:15:03;;;;;;;0.00;0.00;;;22.80;95.20;;;;;;4980696;28;20031;-79
2021/09/17 12:17:29;;;;;;;0.08;0.08;;;23.00;94.50;;;;;;4978032;28;20030;-75
2021/09/17 12:20:07;;;;;;;0.00;0.00;;;22.90;94.90;;;;;;4973229;28;20078;-77
2021/09/17 12:22:58;;;;;;;0.20;0.20;;;22.80;94.80;;;;;;4975555;28;20027;-77
2021/09/17 12:25:33;;;;;;;0.40;0.40;;;22.80;94.80;;;;;;4973755;28;20026;-77
2021/09/17 12:28:13;;;;;;;0.10;0.10;;;23.00;95.00;;;;;;4979594;28;20401;-77
2021/09/17 12:30:45;;;;;;;0.08;0.08;;;23.10;94.90;;;;;;4982096;28;20023;-77
2021/09/17 12:33:24;;;;;;;0.40;0.40;;;22.90;93.90;;;;;;4992598;28;20030;-76
2021/09/17 12:35:57;;;;;;;0.20;0.10;;;23.20;94.30;;;;;;4978568;28;20034;-77
2021/09/17 12:38:29;;;;;;;0.15;0.13;;;23.30;92.70;;;;;;4965895;28;20063;-76
2021/09/17 12:41:00;;;;;;;0.13;0.13;;;23.30;92.90;;;;;;4985652;28;20122;-80
2021/09/17 12:43:31;;;;;;;0.00;0.00;;;23.20;93.50;;;;;;4981761;28;20023;-76
2021/09/17 12:46:01;;;;;;;0.00;0.00;;;23.40;93.10;;;;;;4980111;28;20062;-77
2021/09/17 12:48:30;;;;;;;0.35;0.35;;;23.50;93.40;;;;;;4972691;28;20093;-77
2021/09/17 12:50:57;;;;;;;0.10;0.10;;;23.40;92.80;;;;;;4978869;28;20111;-76